Time;durP1;ratioP1;P1;durP2;ratioP2;P2;SDS_P1;SDS_P2;PMS_P1;PMS_P2;Temp;Humidity;BMP_temperature;BMP_pressure;BME280_temperature;BME280_humidity;BME280_pressure;Samples;Min_cycle;Max_cycle;Signal;HPM_P1;HPM_P2
2023/03/07 00:05:02;;;;;;;46.80;7.67;;;14.20;54.80;;;;;;5040227;28;20302;-96
2023/03/07 00:07:30;;;;;;;29.10;6.57;;;14.30;54.90;;;;;;5068877;28;20206;-96
2023/03/07 00:09:58;;;;;;;34.60;7.27;;;14.30;54.90;;;;;;5075522;28;20303;-96
2023/03/07 00:12:27;;;;;;;33.40;7.10;;;14.20;54.90;;;;;;5076120;28;20883;-95
2023/03/07 00:14:57;;;;;;;44.93;7.93;;;14.20;54.90;;;;;;5075239;28;20648;-96
2023/03/07 00:17:54;;;;;;;38.90;7.37;;;14.20;54.90;;;;;;5056300;28;20679;-96
2023/03/07 00:20:37;;;;;;;;;;;;;;;;;;;;;
2023/03/07 00:23:04;;;;;;;46.37;7.80;;;14.20;54.90;;;;;;5062021;22;20238;-96
2023/03/07 00:25:33;;;;;;;39.57;7.27;;;14.20;54.80;;;;;;5053704;28;20236;-96
2023/03/07 00:30:45;;;;;;;41.37;7.57;;;14.20;54.90;;;;;;5053171;28;20218;-96
2023/03/07 00:33:48;;;;;;;41.70;6.97;;;14.20;54.80;;;;;;5034336;28;20197;-96
2023/03/07 00:36:20;;;;;;;41.80;7.27;;;14.20;54.90;;;;;;5033372;28;20239;-96
2023/03/07 00:38:48;;;;;;;43.97;7.37;;;14.20;54.90;;;;;;5053413;28;20370;-96
2023/03/07 00:41:23;;;;;;;60.80;8.53;;;14.20;54.90;;;;;;5053675;28;20216;-96
2023/03/07 00:43:50;;;;;;;47.67;7.77;;;14.20;55.00;;;;;;5053503;28;20638;-96
2023/03/07 00:46:19;;;;;;;48.10;8.10;;;14.20;54.90;;;;;;5052283;28;20231;-96
2023/03/07 00:49:04;;;;;;;49.63;8.20;;;14.20;54.90;;;;;;5048386;28;20533;-96
2023/03/07 00:51:31;;;;;;;56.40;8.73;;;14.10;54.80;;;;;;5052503;28;20628;-96
2023/03/07 00:54:15;;;;;;;37.20;6.80;;;14.30;55.00;;;;;;5052669;28;20296;-96
2023/03/07 00:56:43;;;;;;;43.17;7.23;;;14.20;54.90;;;;;;5054605;28;20207;-96
2023/03/07 00:59:13;;;;;;;44.53;7.73;;;14.20;54.90;;;;;;5048894;28;20302;-96
2023/03/07 01:01:40;;;;;;;48.50;7.87;;;14.20;54.90;;;;;;5032484;28;20236;-96
2023/03/07 01:04:10;;;;;;;44.27;7.13;;;14.20;55.00;;;;;;5036963;28;20204;-95
2023/03/07 01:06:46;;;;;;;45.67;8.10;;;14.20;54.90;;;;;;5050639;28;20301;-96
2023/03/07 01:09:16;;;;;;;37.27;7.13;;;14.20;54.90;;;;;;5036391;28;20192;-96
2023/03/07 01:11:45;;;;;;;41.47;7.17;;;14.20;54.90;;;;;;5051901;28;20257;-96
2023/03/07 01:14:12;;;;;;;38.27;6.80;;;14.20;54.90;;;;;;5052653;28;20227;-96
2023/03/07 01:16:39;;;;;;;50.60;8.30;;;14.20;55.00;;;;;;5053109;28;20240;-96
2023/03/07 01:19:11;;;;;;;33.10;6.90;;;14.20;55.00;;;;;;5052518;28;20239;-96
2023/03/07 01:22:14;;;;;;;55.93;8.60;;;14.30;55.10;;;;;;5053272;28;20196;-96
2023/03/07 01:24:41;;;;;;;39.07;7.43;;;14.20;55.00;;;;;;5004562;28;20753;-96
2023/03/07 01:27:10;;;;;;;43.80;7.07;;;14.20;55.00;;;;;;5049803;28;20244;-95
2023/03/07 01:29:37;;;;;;;39.80;7.23;;;14.20;55.00;;;;;;5052882;28;20257;-95
2023/03/07 01:32:04;;;;;;;43.13;7.00;;;14.20;55.00;;;;;;5053131;28;20802;-96
2023/03/07 01:34:31;;;;;;;41.70;7.30;;;14.20;55.00;;;;;;5053039;28;20212;-96
2023/03/07 01:37:01;;;;;;;55.57;8.77;;;14.20;55.00;;;;;;5051458;28;20239;-96
2023/03/07 01:39:28;;;;;;;46.97;7.30;;;14.20;55.00;;;;;;5050615;28;20308;-96
2023/03/07 01:41:57;;;;;;;42.90;7.67;;;14.20;55.00;;;;;;5052739;28;20295;-96
2023/03/07 01:44:26;;;;;;;37.60;6.97;;;14.20;55.00;;;;;;5051893;28;20206;-96
2023/03/07 01:49:40;;;;;;;36.87;6.90;;;14.20;55.00;;;;;;5038688;28;20210;-95
2023/03/07 01:52:14;;;;;;;44.83;7.70;;;14.10;54.90;;;;;;5051903;28;20223;-96
2023/03/07 01:57:50;;;;;;;43.57;7.53;;;14.10;54.90;;;;;;5052466;28;20212;-96
2023/03/07 02:00:27;;;;;;;42.93;7.20;;;14.20;55.00;;;;;;5053255;28;20200;-96
2023/03/07 02:03:05;;;;;;;33.23;6.67;;;14.20;55.00;;;;;;5052066;28;20206;-96
2023/03/07 02:05:39;;;;;;;44.90;7.67;;;14.10;54.90;;;;;;5052470;28;20687;-96
2023/03/07 02:08:12;;;;;;;43.40;7.40;;;14.10;54.90;;;;;;5049085;28;20296;-96
2023/03/07 02:10:41;;;;;;;34.93;6.80;;;14.10;54.90;;;;;;5053949;28;20289;-96
2023/03/07 02:13:09;;;;;;;37.97;6.50;;;14.10;54.90;;;;;;5053858;28;20644;-96
2023/03/07 02:15:38;;;;;;;44.07;7.90;;;14.10;54.90;;;;;;5054334;28;20211;-96
2023/03/07 02:24:39;;;;;;;46.53;7.90;;;14.10;54.90;;;;;;5076669;22;20353;-96
2023/03/07 02:30:33;;;;;;;39.90;7.17;;;14.20;55.00;;;;;;5062629;28;20214;-96
2023/03/07 02:33:01;;;;;;;25.60;6.37;;;14.10;54.90;;;;;;5075959;28;20207;-96
2023/03/07 02:35:37;;;;;;;44.90;6.90;;;14.10;54.90;;;;;;5075233;28;20710;-96
2023/03/07 02:38:08;;;;;;;44.60;8.07;;;14.10;54.90;;;;;;5073828;28;20331;-96
2023/03/07 02:43:18;;;;;;;32.77;6.90;;;14.10;55.00;;;;;;5063063;28;20983;-96
2023/03/07 02:45:50;;;;;;;41.23;7.73;;;14.10;54.90;;;;;;5073922;28;20347;-96
2023/03/07 02:48:17;;;;;;;44.23;7.53;;;14.20;55.10;;;;;;5056691;28;20211;-96
2023/03/07 02:50:45;;;;;;;41.90;7.57;;;14.10;55.00;;;;;;5073122;28;20284;-96
2023/03/07 02:53:12;;;;;;;74.53;9.80;;;14.10;55.00;;;;;;5072218;28;20601;-96
2023/03/07 02:55:40;;;;;;;46.97;7.87;;;14.10;55.00;;;;;;5068054;28;20269;-95
2023/03/07 02:58:07;;;;;;;31.67;6.80;;;14.10;55.60;;;;;;5073204;28;20213;-96
2023/03/07 03:00:36;;;;;;;32.17;6.80;;;14.10;55.60;;;;;;5073591;28;20819;-96
2023/03/07 03:03:05;;;;;;;39.07;7.47;;;14.10;55.00;;;;;;5072510;28;20298;-96
2023/03/07 03:05:32;;;;;;;39.47;7.73;;;14.10;55.00;;;;;;5052963;28;20202;-96
2023/03/07 03:07:59;;;;;;;48.13;8.00;;;14.10;55.00;;;;;;5062210;28;20231;-96
2023/03/07 03:10:26;;;;;;;37.37;7.70;;;14.10;55.00;;;;;;5071970;28;20206;-96
2023/03/07 03:12:53;;;;;;;30.73;6.60;;;14.10;55.00;;;;;;5072122;28;20222;-96
2023/03/07 03:15:22;;;;;;;35.93;7.07;;;14.10;55.00;;;;;;5074426;28;20975;-96
2023/03/07 03:17:53;;;;;;;33.47;7.37;;;14.10;55.60;;;;;;5072446;28;20294;-96
2023/03/07 03:20:21;;;;;;;38.97;7.07;;;14.10;55.00;;;;;;5067553;28;20231;-96
2023/03/07 03:22:48;;;;;;;38.83;7.60;;;14.10;55.00;;;;;;5072345;28;20207;-96
2023/03/07 03:25:15;;;;;;;35.73;7.13;;;14.10;55.00;;;;;;5072344;28;20611;-96
2023/03/07 03:27:43;;;;;;;38.30;7.30;;;14.10;55.00;;;;;;5071845;28;20227;-96
2023/03/07 03:30:12;;;;;;;35.53;7.37;;;14.10;55.00;;;;;;5071240;28;20325;-96
2023/03/07 03:32:40;;;;;;;51.27;8.07;;;14.10;55.00;;;;;;5073701;28;20206;-96
2023/03/07 03:35:10;;;;;;;37.27;7.10;;;14.10;55.00;;;;;;5072714;28;20205;-96
2023/03/07 03:37:46;;;;;;;35.47;7.27;;;14.10;55.00;;;;;;5072239;28;20620;-96
2023/03/07 03:40:16;;;;;;;45.50;7.87;;;14.10;55.00;;;;;;5072209;28;20207;-96
2023/03/07 03:42:44;;;;;;;42.13;8.17;;;14.10;55.00;;;;;;5071866;28;20206;-96
2023/03/07 03:45:13;;;;;;;50.53;8.60;;;14.00;54.90;;;;;;5070519;28;20212;-96
2023/03/07 03:47:41;;;;;;;51.87;8.53;;;14.10;55.00;;;;;;5068903;28;20238;-96
2023/03/07 03:50:11;;;;;;;42.53;8.20;;;14.10;55.00;;;;;;5065079;28;20265;-96
2023/03/07 03:52:50;;;;;;;;;;;;;;;;;;;;;
2023/03/07 03:55:18;;;;;;;38.33;7.83;;;14.10;55.00;;;;;;5041371;22;20281;-96
2023/03/07 03:57:45;;;;;;;40.97;7.97;;;14.00;54.90;;;;;;5029011;28;20213;-96
2023/03/07 04:00:14;;;;;;;39.67;7.47;;;14.00;54.90;;;;;;5029285;28;20645;-95
2023/03/07 04:02:41;;;;;;;30.07;7.30;;;14.00;54.90;;;;;;5030525;28;20282;-95
2023/03/07 04:05:10;;;;;;;27.87;6.47;;;14.00;55.00;;;;;;5039286;28;20258;-96
2023/03/07 04:07:37;;;;;;;38.97;7.47;;;14.00;54.90;;;;;;5035483;28;20232;-95
2023/03/07 04:10:06;;;;;;;31.90;7.13;;;14.10;55.00;;;;;;5029426;28;20205;-96
2023/03/07 04:12:34;;;;;;;35.17;7.27;;;14.00;55.00;;;;;;5030913;28;20208;-96
2023/03/07 04:15:01;;;;;;;36.27;7.13;;;14.00;55.00;;;;;;5031081;28;20213;-96
2023/03/07 04:17:28;;;;;;;31.40;7.03;;;14.10;55.10;;;;;;5030969;28;20231;-96
2023/03/07 04:19:56;;;;;;;44.67;8.67;;;14.00;55.00;;;;;;5028864;28;20205;-96
2023/03/07 04:22:24;;;;;;;42.63;8.10;;;14.10;55.10;;;;;;5030911;28;20243;-96
2023/03/07 04:24:51;;;;;;;38.83;7.47;;;14.00;55.00;;;;;;5031035;28;20204;-96
2023/03/07 04:27:19;;;;;;;36.80;7.63;;;14.00;55.00;;;;;;5029238;28;20311;-96
2023/03/07 04:29:46;;;;;;;30.83;6.67;;;14.00;55.00;;;;;;5030460;28;20239;-96
2023/03/07 04:32:23;;;;;;;;;;;;;;;;;;;;;
2023/03/07 04:34:50;;;;;;;59.93;9.07;;;14.00;55.00;;;;;;5029005;28;20211;-96
2023/03/07 04:37:18;;;;;;;53.27;8.43;;;14.00;55.00;;;;;;5029603;28;20254;-96
2023/03/07 04:39:47;;;;;;;41.90;7.77;;;14.00;55.00;;;;;;5029710;28;20211;-96
2023/03/07 04:42:15;;;;;;;37.07;7.33;;;14.00;55.00;;;;;;5028225;28;20228;-96
2023/03/07 04:44:43;;;;;;;31.17;7.00;;;14.00;55.00;;;;;;5022010;28;20254;-96
2023/03/07 04:47:14;;;;;;;33.33;6.97;;;14.00;55.00;;;;;;5028425;28;20335;-96
2023/03/07 04:49:41;;;;;;;39.30;7.30;;;14.00;55.10;;;;;;5033606;28;20204;-96
2023/03/07 04:52:11;;;;;;;35.90;6.93;;;14.00;55.10;;;;;;5037121;28;20227;-96
2023/03/07 04:54:39;;;;;;;34.97;7.67;;;14.00;55.10;;;;;;5052121;22;20725;-96
2023/03/07 04:57:08;;;;;;;30.83;6.97;;;14.00;55.10;;;;;;5056206;28;20735;-96
2023/03/07 05:00:36;;;;;;;41.30;7.80;;;14.00;55.10;;;;;;5056303;28;20207;-96
2023/03/07 05:03:08;;;;;;;36.43;7.37;;;14.10;55.20;;;;;;5056157;28;20685;-96
2023/03/07 05:05:35;;;;;;;43.97;8.13;;;14.10;55.10;;;;;;5055424;28;20270;-96
2023/03/07 05:08:03;;;;;;;37.80;7.53;;;14.00;55.10;;;;;;5048796;28;20695;-96
2023/03/07 05:10:31;;;;;;;34.77;7.23;;;14.00;55.10;;;;;;5054975;28;20203;-96
2023/03/07 05:13:00;;;;;;;37.83;7.43;;;13.90;55.00;;;;;;5055452;28;20197;-96
2023/03/07 05:15:27;;;;;;;36.40;7.17;;;14.00;55.10;;;;;;5056533;28;20291;-96
2023/03/07 05:17:54;;;;;;;40.20;7.73;;;14.00;55.10;;;;;;5056349;28;20214;-96
2023/03/07 05:20:48;;;;;;;45.23;7.87;;;14.00;55.10;;;;;;5054386;28;20208;-96
2023/03/07 05:23:16;;;;;;;55.37;8.43;;;13.90;55.10;;;;;;5052833;28;20207;-96
2023/03/07 05:25:43;;;;;;;47.97;8.20;;;14.00;55.10;;;;;;5053669;28;20636;-96
2023/03/07 05:28:52;;;;;;;34.87;7.33;;;14.00;55.10;;;;;;5055579;28;20288;-95
2023/03/07 05:31:19;;;;;;;38.27;7.47;;;14.00;55.10;;;;;;5046658;28;20276;-96
2023/03/07 05:33:46;;;;;;;35.93;7.07;;;14.00;55.10;;;;;;5055306;28;20626;-96
2023/03/07 05:36:14;;;;;;;30.93;6.93;;;14.00;55.10;;;;;;5054965;28;20284;-96
2023/03/07 05:38:41;;;;;;;58.63;9.33;;;14.00;55.10;;;;;;5054152;28;20208;-96
2023/03/07 05:41:08;;;;;;;48.07;8.07;;;14.00;55.10;;;;;;5061452;28;20214;-96
2023/03/07 05:43:37;;;;;;;48.07;8.20;;;14.00;55.10;;;;;;5074180;28;20644;-96
2023/03/07 05:46:05;;;;;;;39.07;7.53;;;13.90;55.00;;;;;;5071773;28;20203;-95
2023/03/07 05:48:33;;;;;;;40.37;8.17;;;14.00;55.10;;;;;;5064528;28;20600;-95
2023/03/07 05:51:03;;;;;;;39.37;7.23;;;14.00;55.10;;;;;;5060907;28;20303;-96
2023/03/07 05:53:34;;;;;;;25.33;6.57;;;14.00;55.10;;;;;;5058639;28;20640;-96
2023/03/07 05:56:09;;;;;;;45.87;7.57;;;14.00;55.10;;;;;;5038846;28;20227;-95
2023/03/07 05:58:42;;;;;;;33.30;6.53;;;14.00;55.10;;;;;;5055794;28;20681;-96
2023/03/07 06:01:19;;;;;;;38.70;6.77;;;14.00;55.10;;;;;;5054457;28;20269;-96
2023/03/07 06:09:34;;;;;;;38.33;7.50;;;14.00;55.10;;;;;;5041737;28;20277;-96
2023/03/07 06:12:01;;;;;;;36.63;7.30;;;13.90;55.10;;;;;;5052978;28;20554;-95
2023/03/07 06:14:30;;;;;;;40.03;7.03;;;14.00;55.10;;;;;;5053703;28;20283;-96
2023/03/07 06:17:00;;;;;;;35.33;6.90;;;14.00;55.20;;;;;;5054853;28;20671;-96
2023/03/07 06:19:45;;;;;;;55.10;8.00;;;14.00;55.20;;;;;;5054378;28;20207;-96
2023/03/07 06:22:12;;;;;;;41.03;6.80;;;14.00;55.10;;;;;;5051993;28;20216;-96
2023/03/07 06:24:39;;;;;;;40.77;7.40;;;14.00;55.10;;;;;;5053470;28;20199;-96
2023/03/07 06:27:07;;;;;;;39.27;6.80;;;14.00;55.10;;;;;;5051981;28;20310;-95
2023/03/07 06:29:33;;;;;;;42.60;7.33;;;13.90;55.70;;;;;;5052201;28;20563;-94
2023/03/07 06:32:03;;;;;;;46.60;7.57;;;13.90;55.10;;;;;;5045853;28;20620;-95
2023/03/07 06:34:30;;;;;;;41.00;6.97;;;13.90;55.10;;;;;;5051720;28;20240;-95
2023/03/07 06:36:58;;;;;;;41.47;7.07;;;13.90;55.10;;;;;;5051798;28;20239;-95
2023/03/07 06:39:26;;;;;;;32.27;6.30;;;13.90;55.10;;;;;;5051822;28;20205;-94
2023/03/07 06:41:53;;;;;;;54.80;8.80;;;13.90;55.10;;;;;;5049833;28;20574;-96
2023/03/07 06:44:20;;;;;;;34.70;6.27;;;13.90;55.10;;;;;;5051741;28;20211;-95
2023/03/07 06:46:47;;;;;;;34.93;6.53;;;13.90;55.10;;;;;;5050826;28;20309;-95
2023/03/07 06:49:15;;;;;;;45.87;7.40;;;13.90;55.10;;;;;;5041909;28;20216;-95
2023/03/07 06:51:48;;;;;;;42.13;7.00;;;13.90;55.10;;;;;;5052456;28;20208;-96
2023/03/07 06:54:15;;;;;;;41.17;7.23;;;13.90;55.10;;;;;;5047916;28;20739;-96
2023/03/07 06:56:45;;;;;;;42.20;7.13;;;13.90;55.10;;;;;;5050769;28;20207;-95
2023/03/07 06:59:12;;;;;;;30.37;6.17;;;14.00;55.20;;;;;;5051873;28;20311;-95
2023/03/07 07:01:39;;;;;;;38.03;6.57;;;13.90;55.10;;;;;;5050966;28;20733;-93
2023/03/07 07:04:11;;;;;;;38.10;6.37;;;14.00;55.10;;;;;;5050922;28;20236;-95
2023/03/07 07:06:41;;;;;;;34.93;6.57;;;13.90;55.10;;;;;;5050570;28;20215;-94
2023/03/07 07:09:08;;;;;;;40.67;6.60;;;13.90;55.10;;;;;;5051086;28;20227;-94
2023/03/07 07:11:35;;;;;;;43.73;6.70;;;13.90;55.10;;;;;;5048904;28;20204;-94
2023/03/07 07:14:02;;;;;;;40.73;6.93;;;13.90;55.10;;;;;;5049299;28;20208;-94
2023/03/07 07:19:11;;;;;;;35.97;6.03;;;13.90;55.10;;;;;;5028121;28;20294;-93
2023/03/07 07:22:07;;;;;;;33.97;6.20;;;14.00;55.20;;;;;;5051498;28;20259;-94
2023/03/07 07:24:34;;;;;;;37.97;6.70;;;14.00;55.20;;;;;;5047506;28;20298;-94
2023/03/07 07:27:02;;;;;;;41.63;6.77;;;13.90;55.10;;;;;;5041776;28;20227;-93
2023/03/07 07:29:29;;;;;;;46.37;7.47;;;14.00;55.10;;;;;;5048569;28;20598;-93
2023/03/07 07:31:59;;;;;;;51.53;7.43;;;13.90;55.10;;;;;;5055040;28;20277;-92
2023/03/07 07:34:27;;;;;;;34.07;6.33;;;13.90;55.10;;;;;;5049879;28;20309;-91
2023/03/07 07:36:55;;;;;;;41.70;7.23;;;13.90;55.10;;;;;;5049231;28;20204;-90
2023/03/07 07:39:24;;;;;;;35.90;6.20;;;13.90;55.10;;;;;;5050509;28;20263;-91
2023/03/07 07:41:51;;;;;;;51.07;7.80;;;13.90;55.10;;;;;;5048754;28;20730;-92
2023/03/07 07:44:19;;;;;;;35.07;6.17;;;13.90;55.10;;;;;;5046063;28;20236;-94
2023/03/07 07:46:49;;;;;;;40.40;7.23;;;13.90;55.10;;;;;;5049363;28;20196;-93
2023/03/07 07:49:16;;;;;;;90.00;11.37;;;13.90;55.10;;;;;;5047019;28;20254;-92
2023/03/07 07:51:43;;;;;;;40.07;6.67;;;14.00;55.10;;;;;;5049798;28;20880;-94
2023/03/07 07:54:11;;;;;;;25.80;6.07;;;13.90;55.10;;;;;;5049758;28;20893;-94
2023/03/07 07:56:40;;;;;;;46.37;7.47;;;13.90;55.10;;;;;;5046114;28;20208;-94
2023/03/07 07:59:07;;;;;;;38.37;6.93;;;13.80;55.00;;;;;;5050128;28;20211;-94
2023/03/07 08:01:34;;;;;;;32.33;5.88;;;13.90;55.10;;;;;;5052241;28;20785;-96
2023/03/07 08:04:04;;;;;;;35.20;6.53;;;13.90;55.10;;;;;;5052279;28;20237;-95
2023/03/07 08:07:06;;;;;;;31.80;6.00;;;13.90;55.20;;;;;;5049293;28;20642;-90
2023/03/07 08:09:41;;;;;;;32.03;6.07;;;13.90;55.10;;;;;;5041937;28;20199;-92
2023/03/07 08:12:12;;;;;;;32.20;6.30;;;13.80;55.00;;;;;;5044518;28;20534;-92
2023/03/07 08:14:39;;;;;;;25.53;6.10;;;13.90;55.10;;;;;;5057107;28;20203;-93
2023/03/07 08:17:06;;;;;;;42.77;7.53;;;13.90;55.10;;;;;;5052392;28;20680;-93
2023/03/07 08:19:36;;;;;;;29.63;5.90;;;13.90;55.10;;;;;;5049438;28;20636;-91
2023/03/07 08:22:05;;;;;;;56.30;7.97;;;13.90;55.10;;;;;;5048777;28;20555;-92
2023/03/07 08:24:34;;;;;;;30.40;5.93;;;13.90;55.10;;;;;;5046675;28;20209;-89
2023/03/07 08:27:01;;;;;;;38.77;7.00;;;13.90;55.10;;;;;;5048488;28;20234;-92
2023/03/07 08:29:29;;;;;;;36.93;6.57;;;13.90;55.10;;;;;;5049690;28;20293;-91
2023/03/07 08:31:56;;;;;;;42.30;6.87;;;13.90;55.10;;;;;;5050951;28;20299;-93
2023/03/07 08:34:23;;;;;;;35.87;6.37;;;13.90;55.10;;;;;;5049923;28;20262;-94
2023/03/07 08:36:51;;;;;;;32.60;6.27;;;13.90;55.10;;;;;;5049930;28;20651;-94
2023/03/07 08:39:19;;;;;;;32.43;5.80;;;13.90;55.10;;;;;;5047660;28;20700;-94
2023/03/07 08:41:47;;;;;;;45.83;7.13;;;13.90;55.10;;;;;;5050191;28;20210;-95
2023/03/07 08:46:56;;;;;;;43.43;6.83;;;13.90;55.10;;;;;;5044241;28;20204;-93
2023/03/07 08:49:23;;;;;;;35.30;6.27;;;13.90;55.10;;;;;;5050153;28;20238;-95
2023/03/07 08:54:33;;;;;;;50.10;7.17;;;13.90;55.10;;;;;;5010799;22;20302;-93
2023/03/07 08:57:00;;;;;;;44.00;6.90;;;14.00;55.20;;;;;;5069383;28;20208;-94
2023/03/07 08:59:27;;;;;;;38.90;6.47;;;13.90;55.10;;;;;;5069988;28;20208;-94
2023/03/07 09:02:26;;;;;;;35.97;5.77;;;13.90;55.10;;;;;;5060234;28;20317;-94
2023/03/07 09:04:55;;;;;;;34.60;6.57;;;14.00;55.20;;;;;;5069092;28;20230;-94
2023/03/07 09:07:22;;;;;;;35.00;6.53;;;13.90;55.10;;;;;;5070380;28;20536;-94
2023/03/07 09:09:49;;;;;;;34.37;6.10;;;13.90;55.10;;;;;;5083564;28;20199;-94
2023/03/07 09:12:24;;;;;;;39.60;6.20;;;13.90;55.10;;;;;;5061705;28;20810;-94
2023/03/07 09:14:53;;;;;;;30.63;6.27;;;13.90;55.10;;;;;;5075247;22;20284;-95
2023/03/07 09:17:21;;;;;;;48.57;7.37;;;13.90;55.10;;;;;;5067453;28;20200;-94
2023/03/07 09:19:49;;;;;;;39.60;6.80;;;13.90;55.10;;;;;;5049931;28;20295;-95
2023/03/07 09:22:29;;;;;;;37.40;6.00;;;13.90;55.10;;;;;;5049739;28;20230;-94
2023/03/07 09:25:00;;;;;;;47.90;7.07;;;14.00;55.20;;;;;;5049487;28;20196;-94
2023/03/07 09:27:31;;;;;;;30.67;5.93;;;13.90;55.10;;;;;;5049818;28;20207;-94
2023/03/07 09:29:59;;;;;;;44.60;7.10;;;13.90;55.10;;;;;;5056024;28;20196;-94
2023/03/07 09:35:11;;;;;;;45.40;6.97;;;13.90;55.10;;;;;;5065998;28;20207;-94
2023/03/07 09:37:40;;;;;;;36.63;6.17;;;14.00;55.20;;;;;;5072658;28;20199;-95
2023/03/07 09:40:11;;;;;;;48.07;6.93;;;13.90;55.10;;;;;;5055083;28;20277;-93
2023/03/07 09:42:46;;;;;;;33.30;5.83;;;13.90;55.10;;;;;;5053912;28;20234;-94
2023/03/07 09:45:23;;;;;;;52.90;7.40;;;14.00;55.20;;;;;;5053707;28;20295;-94
2023/03/07 09:48:11;;;;;;;28.40;5.87;;;13.90;55.10;;;;;;5052758;28;20315;-94
2023/03/07 09:53:37;;;;;;;32.73;6.30;;;13.90;55.10;;;;;;5032188;22;20244;-94
2023/03/07 09:56:08;;;;;;;48.30;7.20;;;14.00;55.20;;;;;;5031825;28;20422;-94
2023/03/07 09:58:42;;;;;;;31.20;5.77;;;14.00;55.20;;;;;;5032860;28;20292;-94
2023/03/07 10:01:12;;;;;;;36.20;6.50;;;14.00;55.20;;;;;;5032264;28;20306;-94
2023/03/07 10:03:46;;;;;;;29.53;5.93;;;14.00;55.20;;;;;;5032835;28;20207;-94
2023/03/07 10:06:16;;;;;;;36.00;6.33;;;14.00;55.20;;;;;;5025302;28;20216;-94
2023/03/07 10:08:53;;;;;;;36.30;6.13;;;14.00;55.20;;;;;;5012355;28;20695;-94
2023/03/07 10:11:28;;;;;;;43.70;6.87;;;14.00;55.20;;;;;;5018085;28;20223;-94
2023/03/07 10:14:13;;;;;;;44.63;6.43;;;14.00;55.20;;;;;;5025946;28;20297;-94
2023/03/07 10:16:50;;;;;;;31.17;6.03;;;14.00;55.30;;;;;;5032303;28;20834;-94
2023/03/07 10:19:25;;;;;;;34.73;6.13;;;14.00;55.20;;;;;;5026374;28;20204;-94
2023/03/07 10:22:00;;;;;;;35.50;6.23;;;14.00;55.30;;;;;;5031330;28;20204;-94
2023/03/07 10:24:49;;;;;;;30.97;6.13;;;14.00;55.20;;;;;;5031849;28;20651;-94
2023/03/07 10:27:17;;;;;;;35.63;6.30;;;14.00;55.20;;;;;;5032316;28;20229;-94
2023/03/07 10:29:47;;;;;;;37.30;6.13;;;14.00;55.20;;;;;;5031773;28;20327;-94
2023/03/07 10:32:22;;;;;;;49.37;7.07;;;14.00;55.20;;;;;;5031907;28;20321;-94
2023/03/07 10:34:56;;;;;;;33.40;6.17;;;14.00;55.30;;;;;;5032141;28;20223;-95
2023/03/07 10:37:37;;;;;;;48.20;7.07;;;14.00;55.30;;;;;;5030357;28;20601;-93
2023/03/07 10:40:06;;;;;;;36.20;6.37;;;14.00;55.30;;;;;;5032236;28;20307;-93
2023/03/07 10:42:47;;;;;;;35.43;6.37;;;14.00;55.30;;;;;;5027085;28;20259;-88
2023/03/07 10:45:15;;;;;;;34.23;5.93;;;14.10;55.30;;;;;;5032264;28;20660;-88
2023/03/07 10:47:43;;;;;;;51.47;7.73;;;14.10;55.30;;;;;;5028488;28;20732;-88
2023/03/07 10:50:29;;;;;;;48.87;7.53;;;14.00;55.30;;;;;;5032361;28;20189;-88
2023/03/07 10:53:03;;;;;;;36.33;6.50;;;14.00;55.30;;;;;;5025635;28;20204;-88
2023/03/07 10:55:37;;;;;;;28.67;5.97;;;14.00;55.30;;;;;;5031304;28;20208;-94
2023/03/07 10:58:19;;;;;;;48.13;7.37;;;14.00;55.30;;;;;;5026320;28;20651;-93
2023/03/07 11:00:58;;;;;;;42.80;6.83;;;14.00;55.30;;;;;;5032174;28;20205;-93
2023/03/07 11:03:31;;;;;;;42.13;6.70;;;14.10;55.30;;;;;;5026749;28;20207;-95
2023/03/07 11:06:01;;;;;;;35.73;6.17;;;14.10;55.40;;;;;;5029656;28;20284;-96
2023/03/07 11:08:31;;;;;;;34.93;5.77;;;14.10;55.30;;;;;;5031029;28;20228;-95
2023/03/07 11:11:01;;;;;;;34.77;6.23;;;14.00;55.30;;;;;;5031471;28;20203;-96
2023/03/07 11:13:29;;;;;;;36.03;6.33;;;14.10;55.40;;;;;;5030830;28;20201;-93
2023/03/07 11:16:18;;;;;;;36.00;6.40;;;14.10;55.40;;;;;;5031078;28;20225;-95
2023/03/07 11:18:46;;;;;;;45.13;6.83;;;14.10;55.40;;;;;;5014758;28;20212;-92
2023/03/07 11:21:32;;;;;;;37.83;6.67;;;14.10;55.40;;;;;;5029874;28;20288;-92
2023/03/07 11:24:01;;;;;;;31.73;6.23;;;14.10;55.40;;;;;;5017677;28;20214;-90
2023/03/07 11:26:32;;;;;;;34.17;6.50;;;14.10;55.40;;;;;;5025982;28;20347;-92
2023/03/07 11:29:10;;;;;;;42.53;7.10;;;14.10;55.40;;;;;;5030349;28;20303;-91
2023/03/07 11:31:52;;;;;;;36.23;6.73;;;14.10;55.40;;;;;;5027701;28;20629;-90
2023/03/07 11:34:35;;;;;;;44.33;7.23;;;14.10;55.40;;;;;;5021369;28;20207;-91
2023/03/07 11:37:21;;;;;;;28.07;5.60;;;14.10;55.40;;;;;;5029716;28;20212;-90
2023/03/07 11:40:02;;;;;;;46.43;6.93;;;14.20;55.50;;;;;;5029585;28;20201;-92
2023/03/07 11:42:34;;;;;;;51.83;7.20;;;14.10;55.40;;;;;;5012617;28;20637;-92
2023/03/07 11:45:08;;;;;;;44.60;6.73;;;14.10;55.40;;;;;;5046157;28;20214;-90
2023/03/07 11:47:48;;;;;;;35.77;6.40;;;14.20;55.50;;;;;;5050268;28;20208;-91
2023/03/07 11:50:21;;;;;;;38.23;6.97;;;14.20;55.50;;;;;;5029249;28;20231;-94
2023/03/07 11:53:14;;;;;;;54.00;7.77;;;14.20;55.50;;;;;;5029609;28;20216;-91
2023/03/07 11:55:49;;;;;;;36.13;6.77;;;14.20;55.50;;;;;;5029269;28;20216;-93
2023/03/07 11:58:35;;;;;;;44.33;6.80;;;14.20;55.50;;;;;;5028419;28;20208;-91
2023/03/07 12:01:18;;;;;;;32.70;5.70;;;14.20;55.50;;;;;;5030280;28;20211;-90
2023/03/07 12:04:18;;;;;;;36.97;6.47;;;14.20;55.50;;;;;;5029098;28;20653;-90
2023/03/07 12:06:53;;;;;;;36.17;6.37;;;14.20;55.50;;;;;;5028930;28;20649;-93
2023/03/07 12:09:31;;;;;;;41.83;6.90;;;14.30;55.60;;;;;;5028940;28;20235;-96
2023/03/07 12:12:18;;;;;;;39.77;6.87;;;14.20;55.50;;;;;;5030585;28;20288;-93
2023/03/07 12:15:01;;;;;;;30.80;5.93;;;14.20;55.60;;;;;;5030637;28;20235;-93
2023/03/07 12:17:43;;;;;;;39.83;6.67;;;14.30;55.70;;;;;;5025473;28;20205;-92
2023/03/07 12:20:28;;;;;;;54.40;7.93;;;14.20;55.60;;;;;;5016212;28;20204;-92
2023/03/07 12:23:09;;;;;;;43.33;6.80;;;14.30;55.70;;;;;;5030230;28;20196;-93
2023/03/07 12:25:38;;;;;;;59.47;8.33;;;14.30;55.60;;;;;;5029659;28;20292;-93
2023/03/07 12:28:12;;;;;;;51.37;7.67;;;14.30;55.60;;;;;;5029150;28;20201;-92
2023/03/07 12:30:51;;;;;;;32.53;6.17;;;14.30;55.60;;;;;;5030114;28;20204;-93
2023/03/07 12:33:27;;;;;;;43.40;6.77;;;14.30;56.20;;;;;;5034892;28;20205;-94
2023/03/07 12:35:58;;;;;;;29.67;6.00;;;14.30;55.60;;;;;;5045688;28;20200;-91
2023/03/07 12:38:37;;;;;;;30.27;5.97;;;14.30;55.60;;;;;;5029902;28;20722;-96
2023/03/07 12:41:14;;;;;;;26.57;5.70;;;14.30;55.60;;;;;;5034213;28;20212;-94
2023/03/07 12:43:46;;;;;;;37.10;6.27;;;14.30;55.60;;;;;;5029059;28;20201;-96
2023/03/07 12:46:22;;;;;;;31.63;6.17;;;14.30;55.60;;;;;;5014525;28;20240;-96
2023/03/07 12:49:01;;;;;;;33.70;5.57;;;14.30;55.60;;;;;;5023245;28;20220;-96
2023/03/07 12:54:41;;;;;;;60.13;8.03;;;14.40;55.70;;;;;;5027976;28;20225;-95
2023/03/07 12:57:14;;;;;;;30.03;5.50;;;14.40;55.70;;;;;;5033422;28;20290;-96
2023/03/07 13:00:08;;;;;;;40.33;6.23;;;14.40;55.60;;;;;;5032055;28;20213;-93
2023/03/07 13:02:43;;;;;;;34.13;5.90;;;14.40;55.60;;;;;;5010689;28;20271;-95
2023/03/07 13:05:19;;;;;;;34.97;6.20;;;14.40;55.60;;;;;;5010247;28;20211;-94
2023/03/07 13:07:47;;;;;;;39.17;6.57;;;14.40;55.60;;;;;;5010125;28;20202;-95
2023/03/07 13:10:19;;;;;;;43.53;7.03;;;14.40;55.60;;;;;;5014517;28;20286;-95
2023/03/07 13:12:47;;;;;;;33.90;6.10;;;14.40;55.60;;;;;;5031817;28;20653;-94
2023/03/07 13:16:02;;;;;;;29.93;6.10;;;14.40;55.50;;;;;;5033512;28;20271;-94
2023/03/07 13:19:19;;;;;;;39.43;6.40;;;14.30;55.50;;;;;;5032794;28;20212;-94
2023/03/07 13:25:43;;;;;;;38.00;6.37;;;14.40;55.50;;;;;;5032740;28;20254;-93
2023/03/07 13:28:42;;;;;;;38.87;6.23;;;14.40;55.50;;;;;;5031476;28;20214;-94
2023/03/07 13:31:41;;;;;;;31.63;6.00;;;14.40;55.50;;;;;;5025922;28;20347;-94
2023/03/07 13:34:45;;;;;;;35.70;6.17;;;14.40;55.50;;;;;;5032991;28;20311;-95
2023/03/07 13:37:51;;;;;;;38.40;6.50;;;14.30;55.50;;;;;;5032836;28;20212;-95
2023/03/07 13:40:57;;;;;;;39.60;6.53;;;14.40;55.60;;;;;;5032617;28;20208;-94
2023/03/07 13:43:50;;;;;;;71.23;8.83;;;14.20;55.40;;;;;;5029546;28;20224;-94
2023/03/07 13:46:47;;;;;;;38.33;6.70;;;14.30;55.50;;;;;;5031197;28;20312;-95
2023/03/07 13:49:50;;;;;;;36.47;6.60;;;14.40;55.60;;;;;;5032073;28;20243;-94
2023/03/07 13:52:47;;;;;;;41.77;6.53;;;14.30;55.50;;;;;;5032277;28;20291;-94
2023/03/07 13:55:27;;;;;;;43.60;6.83;;;14.30;55.50;;;;;;5032270;28;20566;-93
2023/03/07 13:58:15;;;;;;;37.37;6.50;;;14.30;55.50;;;;;;5032065;28;20275;-94
2023/03/07 14:00:51;;;;;;;42.53;7.07;;;14.30;55.50;;;;;;5012164;28;20272;-95
2023/03/07 14:03:27;;;;;;;38.27;6.77;;;14.30;55.50;;;;;;5012675;28;20731;-93